Time;durP1;ratioP1;P1;durP2;ratioP2;P2;SDS_P1;SDS_P2;PMS_P1;PMS_P2;Temp;Humidity;BMP_temperature;BMP_pressure;BME280_temperature;BME280_humidity;BME280_pressure;Samples;Min_cycle;Max_cycle;Signal;HPM_P1;HPM_P2
2021/03/23 00:00:42;;;;;;;;;;;15.30;55.70;;;;;;4920816;29;19907;-60
2021/03/23 00:03:07;;;;;;;;;;;15.30;55.80;;;;;;4938041;29;19929;-60
2021/03/23 00:05:33;;;;;;;;;;;15.40;55.90;;;;;;4937838;29;20369;-60
2021/03/23 00:07:58;;;;;;;;;;;15.30;56.00;;;;;;4937284;29;20393;-60
2021/03/23 00:10:25;;;;;;;;;;;15.00;55.90;;;;;;4920665;29;19907;-60
2021/03/23 00:12:51;;;;;;;;;;;15.20;56.00;;;;;;4920632;29;19907;-60
2021/03/23 00:15:17;;;;;;;;;;;15.20;56.10;;;;;;4937918;29;19933;-60
2021/03/23 00:17:42;;;;;;;;;;;15.20;56.10;;;;;;4937631;29;20358;-59
2021/03/23 00:20:09;;;;;;;;;;;15.20;56.10;;;;;;4937491;29;20112;-60
2021/03/23 00:22:35;;;;;;;;;;;15.20;56.20;;;;;;4937448;29;19930;-60
2021/03/23 00:25:00;;;;;;;;;;;15.10;56.20;;;;;;4937958;29;19989;-60
2021/03/23 00:27:26;;;;;;;;;;;15.00;56.20;;;;;;4937337;29;20017;-59
2021/03/23 00:29:51;;;;;;;;;;;15.10;56.30;;;;;;4937595;29;19910;-59
2021/03/23 00:32:17;;;;;;;;;;;15.10;56.30;;;;;;4920207;29;19914;-60
2021/03/23 00:34:43;;;;;;;;;;;15.10;56.40;;;;;;4937262;29;19907;-60
2021/03/23 00:37:08;;;;;;;;;;;14.90;56.30;;;;;;4937457;29;20001;-60
2021/03/23 00:39:35;;;;;;;;;;;15.10;56.40;;;;;;4935969;29;20050;-60
2021/03/23 00:42:01;;;;;;;;;;;15.10;56.50;;;;;;4937192;29;20374;-60
2021/03/23 00:44:27;;;;;;;;;;;15.10;56.50;;;;;;4937399;29;19987;-59
2021/03/23 00:46:52;;;;;;;;;;;14.90;56.40;;;;;;4937352;29;19930;-60
2021/03/23 00:49:18;;;;;;;;;;;15.00;56.50;;;;;;4937276;29;20353;-60
2021/03/23 00:51:43;;;;;;;;;;;15.10;56.60;;;;;;4920009;29;20334;-60
2021/03/23 00:54:09;;;;;;;;;;;14.90;56.50;;;;;;4937278;29;20415;-60
2021/03/23 00:56:34;;;;;;;;;;;15.10;56.70;;;;;;4936928;29;19913;-60
2021/03/23 00:59:00;;;;;;;;;;;15.00;56.70;;;;;;4937111;29;19914;-60
2021/03/23 01:01:25;;;;;;;;;;;14.80;56.60;;;;;;4937198;29;20005;-60
2021/03/23 01:03:57;;;;;;;;;;;15.00;56.80;;;;;;4936755;29;19915;-59
2021/03/23 01:06:23;;;;;;;;;;;15.00;56.70;;;;;;4918253;29;20302;-60
2021/03/23 01:08:48;;;;;;;;;;;14.70;56.70;;;;;;4917961;29;19926;-60
2021/03/23 01:11:14;;;;;;;;;;;15.10;56.90;;;;;;4917726;29;19907;-60
2021/03/23 01:13:39;;;;;;;;;;;14.70;56.70;;;;;;4917688;29;19907;-60
2021/03/23 01:16:07;;;;;;;;;;;14.70;56.70;;;;;;4917985;29;19978;-60
2021/03/23 01:18:33;;;;;;;;;;;14.90;56.90;;;;;;4919347;29;19954;-60
2021/03/23 01:20:58;;;;;;;;;;;14.90;57.00;;;;;;4936457;29;20345;-60
2021/03/23 01:23:24;;;;;;;;;;;14.80;56.90;;;;;;4936499;29;19962;-60
2021/03/23 01:25:49;;;;;;;;;;;14.80;56.90;;;;;;4936681;29;19907;-60
2021/03/23 01:28:15;;;;;;;;;;;14.90;57.00;;;;;;4936217;29;20065;-60
2021/03/23 01:30:40;;;;;;;;;;;14.80;57.00;;;;;;4919274;29;19907;-60
2021/03/23 01:33:06;;;;;;;;;;;15.20;57.30;;;;;;4936204;29;20397;-60
2021/03/23 01:35:31;;;;;;;;;;;14.90;57.10;;;;;;4936278;29;19917;-60
2021/03/23 01:37:57;;;;;;;;;;;14.90;57.20;;;;;;4936185;29;19946;-60
2021/03/23 01:40:25;;;;;;;;;;;14.90;57.20;;;;;;4936483;29;19964;-60
2021/03/23 01:42:53;;;;;;;;;;;14.80;57.30;;;;;;4936469;29;20285;-60
2021/03/23 01:45:35;;;;;;;;;;;14.70;57.10;;;;;;4936190;29;19906;-60
2021/03/23 01:48:02;;;;;;;;;;;14.80;57.10;;;;;;4936258;29;19914;-60
2021/03/23 01:50:28;;;;;;;;;;;14.80;57.30;;;;;;4935667;29;19947;-60
2021/03/23 01:52:58;;;;;;;;;;;14.70;57.20;;;;;;4935945;29;19907;-60
2021/03/23 01:55:23;;;;;;;;;;;14.80;57.40;;;;;;4935938;29;19906;-60
2021/03/23 01:57:50;;;;;;;;;;;14.60;57.20;;;;;;4935580;29;19962;-60
2021/03/23 02:00:16;;;;;;;;;;;14.80;57.40;;;;;;4935823;29;20467;-60
2021/03/23 02:02:41;;;;;;;;;;;14.80;57.40;;;;;;4935685;29;19911;-60
2021/03/23 02:05:08;;;;;;;;;;;14.70;57.40;;;;;;4935643;29;19966;-59
2021/03/23 02:07:34;;;;;;;;;;;14.70;57.40;;;;;;4934972;29;19925;-60
2021/03/23 02:09:59;;;;;;;;;;;14.70;57.50;;;;;;4935566;29;19907;-60
2021/03/23 02:12:27;;;;;;;;;;;14.70;57.40;;;;;;4935638;29;19906;-60
2021/03/23 02:14:52;;;;;;;;;;;14.70;57.50;;;;;;4918533;29;19941;-60
2021/03/23 02:17:24;;;;;;;;;;;14.60;57.40;;;;;;4918608;29;19910;-60
2021/03/23 02:19:57;;;;;;;;;;;14.70;57.50;;;;;;4935695;29;19953;-60
2021/03/23 02:22:30;;;;;;;;;;;14.70;57.50;;;;;;4935860;29;20281;-59
2021/03/23 02:24:56;;;;;;;;;;;14.70;57.50;;;;;;4935797;29;19907;-60
2021/03/23 02:27:22;;;;;;;;;;;14.70;57.60;;;;;;4935352;29;19950;-60
2021/03/23 02:29:48;;;;;;;;;;;14.70;57.60;;;;;;4935327;29;19911;-60
2021/03/23 02:32:14;;;;;;;;;;;14.70;57.60;;;;;;4935696;29;19962;-60
2021/03/23 02:34:39;;;;;;;;;;;15.40;58.00;;;;;;4935452;29;20306;-60
2021/03/23 02:37:05;;;;;;;;;;;14.80;57.80;;;;;;4935410;29;20433;-60
2021/03/23 02:39:31;;;;;;;;;;;14.70;57.70;;;;;;4935545;29;19907;-60
2021/03/23 02:41:57;;;;;;;;;;;14.60;57.70;;;;;;4935436;29;19918;-60
2021/03/23 02:44:24;;;;;;;;;;;14.50;57.60;;;;;;4935498;29;19911;-60
2021/03/23 02:46:50;;;;;;;;;;;14.40;57.60;;;;;;4935247;29;19907;-60
2021/03/23 02:49:15;;;;;;;;;;;14.60;57.80;;;;;;4935248;29;20511;-60
2021/03/23 02:51:41;;;;;;;;;;;14.60;57.70;;;;;;4935115;29;19906;-60
2021/03/23 02:54:07;;;;;;;;;;;14.50;57.70;;;;;;4935118;29;19917;-60
2021/03/23 02:56:33;;;;;;;;;;;14.60;57.80;;;;;;4935278;29;19953;-59
2021/03/23 02:58:58;;;;;;;;;;;14.40;57.70;;;;;;4935009;29;20369;-60
2021/03/23 03:01:24;;;;;;;;;;;14.50;57.80;;;;;;4935088;29;19911;-60
2021/03/23 03:03:50;;;;;;;;;;;14.60;57.90;;;;;;4938812;29;19969;-60
2021/03/23 03:06:15;;;;;;;;;;;14.40;57.80;;;;;;4938558;28;19907;-59
2021/03/23 03:08:40;;;;;;;;;;;14.50;57.90;;;;;;4938842;29;19957;-60
2021/03/23 03:11:06;;;;;;;;;;;14.40;57.80;;;;;;4938919;29;20451;-59
2021/03/23 03:13:32;;;;;;;;;;;14.50;57.90;;;;;;4938891;29;19910;-60
2021/03/23 03:15:58;;;;;;;;;;;14.50;58.20;;;;;;4938835;29;20361;-59
2021/03/23 03:18:24;;;;;;;;;;;14.50;58.00;;;;;;4938996;29;20350;-59
2021/03/23 03:20:50;;;;;;;;;;;14.30;57.90;;;;;;4938664;29;19907;-59
2021/03/23 03:23:16;;;;;;;;;;;14.50;58.00;;;;;;4938649;29;19913;-60
2021/03/23 03:25:42;;;;;;;;;;;14.40;57.90;;;;;;4938892;29;19918;-59
2021/03/23 03:28:07;;;;;;;;;;;14.50;58.00;;;;;;4938560;29;20009;-60
2021/03/23 03:30:34;;;;;;;;;;;14.50;58.00;;;;;;4938580;29;20106;-60
2021/03/23 03:33:00;;;;;;;;;;;14.40;58.00;;;;;;4921325;29;20019;-60
2021/03/23 03:35:26;;;;;;;;;;;14.30;58.00;;;;;;4938455;29;19946;-60
2021/03/23 03:37:51;;;;;;;;;;;14.40;58.00;;;;;;4938543;29;19925;-60
2021/03/23 03:40:19;;;;;;;;;;;14.50;58.10;;;;;;4938574;29;19907;-59
2021/03/23 03:42:45;;;;;;;;;;;14.90;58.40;;;;;;4938364;29;19906;-60
2021/03/23 03:45:11;;;;;;;;;;;14.40;58.10;;;;;;4938238;29;19914;-59
2021/03/23 03:47:36;;;;;;;;;;;14.40;58.00;;;;;;4938206;29;19926;-59
2021/03/23 03:50:03;;;;;;;;;;;14.60;58.20;;;;;;4921089;29;19913;-60
2021/03/23 03:52:28;;;;;;;;;;;14.40;58.10;;;;;;4938020;29;19918;-60
2021/03/23 03:54:54;;;;;;;;;;;14.40;58.20;;;;;;4920963;29;20362;-60
2021/03/23 03:57:19;;;;;;;;;;;15.00;58.50;;;;;;4937945;29;19929;-59
2021/03/23 03:59:45;;;;;;;;;;;14.40;58.20;;;;;;4937993;29;20005;-60
2021/03/23 04:02:11;;;;;;;;;;;14.30;58.20;;;;;;4937882;29;19913;-60
2021/03/23 04:04:36;;;;;;;;;;;14.40;58.20;;;;;;4938200;29;20276;-60
2021/03/23 04:07:02;;;;;;;;;;;14.20;58.10;;;;;;4920520;29;20013;-60
2021/03/23 04:09:27;;;;;;;;;;;14.40;58.20;;;;;;4937775;29;19915;-60
2021/03/23 04:11:53;;;;;;;;;;;14.30;58.20;;;;;;4938050;29;19936;-60
2021/03/23 04:14:18;;;;;;;;;;;14.30;58.20;;;;;;4937515;29;19917;-59
2021/03/23 04:16:44;;;;;;;;;;;14.30;58.20;;;;;;4937830;29;20452;-60
2021/03/23 04:19:09;;;;;;;;;;;15.00;58.60;;;;;;4920627;29;19907;-60
2021/03/23 04:21:35;;;;;;;;;;;14.30;58.30;;;;;;4937601;29;20382;-59
2021/03/23 04:24:01;;;;;;;;;;;14.30;58.30;;;;;;4937885;29;19942;-60
2021/03/23 04:26:26;;;;;;;;;;;14.30;58.30;;;;;;4937558;29;20406;-59
2021/03/23 04:28:52;;;;;;;;;;;14.30;58.30;;;;;;4937687;29;20374;-60
2021/03/23 04:31:26;;;;;;;;;;;14.30;58.40;;;;;;4937607;29;19910;-59
2021/03/23 04:33:52;;;;;;;;;;;14.30;58.30;;;;;;4920230;29;19919;-60
2021/03/23 04:36:18;;;;;;;;;;;14.30;58.30;;;;;;4937523;29;19953;-60
2021/03/23 04:38:43;;;;;;;;;;;14.20;58.90;;;;;;4937183;29;19907;-60
2021/03/23 04:41:10;;;;;;;;;;;14.30;58.30;;;;;;4937213;29;19917;-60
2021/03/23 04:43:37;;;;;;;;;;;14.20;58.30;;;;;;4937166;29;19907;-60
2021/03/23 04:46:03;;;;;;;;;;;14.10;58.30;;;;;;4937241;29;19907;-60
2021/03/23 04:48:28;;;;;;;;;;;14.20;58.40;;;;;;4937074;29;19922;-60
2021/03/23 04:50:54;;;;;;;;;;;14.20;58.40;;;;;;4937040;29;19914;-60
2021/03/23 04:53:22;;;;;;;;;;;14.00;58.30;;;;;;4937290;29;20369;-59
2021/03/23 04:55:48;;;;;;;;;;;14.20;58.30;;;;;;4919864;29;19907;-60
2021/03/23 04:58:14;;;;;;;;;;;14.20;58.40;;;;;;4936835;29;19962;-59
2021/03/23 05:00:39;;;;;;;;;;;14.10;58.40;;;;;;4936868;29;19906;-60
2021/03/23 05:03:05;;;;;;;;;;;14.20;58.50;;;;;;4937066;29;19907;-59
2021/03/23 05:05:31;;;;;;;;;;;14.20;58.50;;;;;;4919663;29;19998;-59
2021/03/23 05:07:56;;;;;;;;;;;14.20;58.50;;;;;;4936251;29;20017;-59
2021/03/23 05:10:22;;;;;;;;;;;14.10;58.50;;;;;;4936973;29;19911;-60
2021/03/23 05:12:47;;;;;;;;;;;14.00;58.50;;;;;;4919581;29;19917;-59
2021/03/23 05:15:13;;;;;;;;;;;14.00;58.50;;;;;;4936546;29;19907;-60
2021/03/23 05:17:38;;;;;;;;;;;14.20;58.60;;;;;;4936531;29;19957;-60
2021/03/23 05:20:05;;;;;;;;;;;14.20;58.60;;;;;;4936754;29;19922;-60
2021/03/23 05:22:31;;;;;;;;;;;14.20;58.60;;;;;;4936462;29;19906;-60
2021/03/23 05:24:56;;;;;;;;;;;14.00;58.70;;;;;;4935663;29;20301;-60
2021/03/23 05:27:22;;;;;;;;;;;14.10;58.60;;;;;;4936195;29;19911;-59
2021/03/23 05:29:47;;;;;;;;;;;14.20;58.70;;;;;;4919213;29;19907;-60
2021/03/23 05:32:13;;;;;;;;;;;14.10;58.60;;;;;;4936232;29;19913;-59
2021/03/23 05:34:38;;;;;;;;;;;14.30;58.80;;;;;;4918972;29;19917;-60
2021/03/23 05:37:04;;;;;;;;;;;14.20;58.70;;;;;;4919142;29;19998;-60
2021/03/23 05:39:30;;;;;;;;;;;14.10;58.60;;;;;;4919042;29;20002;-60
2021/03/23 05:42:04;;;;;;;;;;;14.20;58.70;;;;;;4936121;29;19907;-59
2021/03/23 05:44:42;;;;;;;;;;;14.10;58.60;;;;;;4936043;29;20455;-60
2021/03/23 05:47:11;;;;;;;;;;;14.10;58.60;;;;;;4918895;29;20025;-59
2021/03/23 05:49:39;;;;;;;;;;;14.10;58.70;;;;;;4936023;29;19957;-59
2021/03/23 05:52:07;;;;;;;;;;;14.00;58.70;;;;;;4935972;29;19934;-59
2021/03/23 05:54:35;;;;;;;;;;;14.10;58.80;;;;;;4935882;29;20354;-60
2021/03/23 05:57:04;;;;;;;;;;;14.10;59.00;;;;;;4936117;29;19907;-60
2021/03/23 05:59:32;;;;;;;;;;;13.90;58.90;;;;;;4935780;29;19962;-60
2021/03/23 06:02:01;;;;;;;;;;;14.10;59.60;;;;;;4936123;29;19911;-60
2021/03/23 06:04:44;;;;;;;;;;;14.10;59.10;;;;;;4936064;29;20289;-60
2021/03/23 06:07:13;;;;;;;;;;;14.10;59.40;;;;;;4935320;29;19918;-60
2021/03/23 06:09:39;;;;;;;;;;;14.10;59.80;;;;;;4935824;29;20265;-60
2021/03/23 06:12:15;;;;;;;;;;;14.50;60.00;;;;;;4935879;29;19907;-60
2021/03/23 06:14:47;;;;;;;;;;;14.30;60.00;;;;;;4935678;29;19943;-60
2021/03/23 06:17:31;;;;;;;;;;;14.40;60.10;;;;;;4918497;29;19910;-60
2021/03/23 06:20:02;;;;;;;;;;;14.50;59.90;;;;;;4918791;29;19949;-60
2021/03/23 06:22:33;;;;;;;;;;;14.50;59.80;;;;;;4935702;29;19918;-60
2021/03/23 06:24:59;;;;;;;;;;;14.60;59.70;;;;;;4935591;29;19962;-60
2021/03/23 06:27:42;;;;;;;;;;;14.70;59.60;;;;;;4935383;29;19952;-60
2021/03/23 06:30:33;;;;;;;;;;;14.70;59.50;;;;;;4935360;29;20281;-60
2021/03/23 06:32:59;;;;;;;;;;;14.70;59.30;;;;;;4918191;29;19918;-60
2021/03/23 06:35:27;;;;;;;;;;;14.70;59.40;;;;;;4935432;29;19911;-59
2021/03/23 06:37:53;;;;;;;;;;;14.70;59.30;;;;;;4918026;29;19922;-59
2021/03/23 06:40:20;;;;;;;;;;;14.70;59.40;;;;;;4935250;29;19911;-59
2021/03/23 06:42:48;;;;;;;;;;;14.70;59.30;;;;;;4918097;29;19942;-59
2021/03/23 06:45:25;;;;;;;;;;;14.70;59.40;;;;;;4935440;29;20005;-58
2021/03/23 06:47:51;;;;;;;;;;;14.70;59.30;;;;;;4935054;29;19926;-57
2021/03/23 06:50:22;;;;;;;;;;;14.70;59.40;;;;;;4918003;29;19907;-57
2021/03/23 06:53:20;;;;;;;;;;;14.70;59.40;;;;;;4935287;29;19911;-57
2021/03/23 06:55:46;;;;;;;;;;;14.70;59.50;;;;;;4912885;29;19926;-57
2021/03/23 06:58:20;;;;;;;;;;;14.70;59.70;;;;;;4934046;29;19907;-57
2021/03/23 07:00:46;;;;;;;;;;;14.60;59.70;;;;;;4934876;29;19907;-57
2021/03/23 07:03:23;;;;;;;;;;;14.80;59.80;;;;;;4935048;29;19907;-58
2021/03/23 07:05:49;;;;;;;;;;;14.60;59.50;;;;;;4935082;29;19910;-57
2021/03/23 07:08:14;;;;;;;;;;;14.60;59.60;;;;;;4934498;28;20017;-58
2021/03/23 07:10:44;;;;;;;;;;;14.50;60.20;;;;;;4935032;29;20259;-57
2021/03/23 07:13:24;;;;;;;;;;;14.50;59.60;;;;;;4935047;29;19956;-57
2021/03/23 07:15:56;;;;;;;;;;;14.50;59.60;;;;;;4935227;29;19911;-57
2021/03/23 07:18:21;;;;;;;;;;;14.50;59.80;;;;;;4934951;29;19907;-56
2021/03/23 07:20:49;;;;;;;;;;;15.00;60.50;;;;;;4934860;29;19971;-56
2021/03/23 07:23:29;;;;;;;;;;;14.60;61.30;;;;;;4935095;29;19998;-56
2021/03/23 07:25:56;;;;;;;;;;;14.50;60.50;;;;;;4934468;29;19907;-56
2021/03/23 07:28:25;;;;;;;;;;;14.50;60.70;;;;;;4934732;29;19921;-55
2021/03/23 07:31:03;;;;;;;;;;;14.50;60.70;;;;;;4934626;29;19911;-55
2021/03/23 07:33:39;;;;;;;;;;;14.40;60.80;;;;;;4934935;29;19914;-56
2021/03/23 07:36:07;;;;;;;;;;;14.50;60.90;;;;;;4934753;29;19907;-56
2021/03/23 07:38:36;;;;;;;;;;;14.50;61.20;;;;;;4934639;29;19926;-56
2021/03/23 07:41:02;;;;;;;;;;;14.40;61.20;;;;;;4934600;29;19907;-55
2021/03/23 07:43:37;;;;;;;;;;;14.20;60.90;;;;;;4934894;29;19926;-56
2021/03/23 07:46:15;;;;;;;;;;;14.40;60.90;;;;;;4934938;29;19981;-56
2021/03/23 07:48:52;;;;;;;;;;;14.40;61.20;;;;;;4936440;29;19915;-56
2021/03/23 07:51:29;;;;;;;;;;;14.30;61.40;;;;;;4938043;29;19910;-56
2021/03/23 07:53:58;;;;;;;;;;;14.50;61.00;;;;;;4938177;29;20396;-56
2021/03/23 07:56:47;;;;;;;;;;;14.40;61.10;;;;;;4938181;29;19914;-55
2021/03/23 07:59:31;;;;;;;;;;;14.50;61.00;;;;;;4938035;29;19911;-56
2021/03/23 08:01:56;;;;;;;;;;;14.50;61.10;;;;;;4937915;29;19907;-55
2021/03/23 08:04:37;;;;;;;;;;;14.50;61.10;;;;;;4937935;29;19926;-56
2021/03/23 08:07:09;;;;;;;;;;;14.50;60.90;;;;;;4937634;28;20345;-55
2021/03/23 08:09:53;;;;;;;;;;;14.60;61.00;;;;;;4937716;29;19937;-54
2021/03/23 08:12:31;;;;;;;;;;;14.60;61.20;;;;;;4938084;29;20062;-54
2021/03/23 08:15:08;;;;;;;;;;;14.80;61.10;;;;;;4937465;29;19906;-55
2021/03/23 08:17:51;;;;;;;;;;;14.60;61.20;;;;;;4937894;29;20026;-55
2021/03/23 08:20:43;;;;;;;;;;;14.70;61.10;;;;;;4937984;29;19914;-55
2021/03/23 08:23:21;;;;;;;;;;;14.70;61.10;;;;;;4935400;29;19917;-55
2021/03/23 08:25:48;;;;;;;;;;;14.50;61.00;;;;;;4937690;29;19907;-55
2021/03/23 08:28:22;;;;;;;;;;;14.60;61.10;;;;;;4937656;29;19915;-55
2021/03/23 08:30:57;;;;;;;;;;;14.70;60.90;;;;;;4937401;29;19918;-54
2021/03/23 08:33:28;;;;;;;;;;;14.70;60.80;;;;;;4937937;29;19917;-54
2021/03/23 08:36:00;;;;;;;;;;;14.60;60.80;;;;;;4937275;29;19975;-55
2021/03/23 08:38:34;;;;;;;;;;;14.60;60.90;;;;;;4937391;29;20445;-56
2021/03/23 08:41:00;;;;;;;;;;;14.60;60.80;;;;;;4937485;29;19907;-55
2021/03/23 08:43:46;;;;;;;;;;;14.40;60.80;;;;;;4937487;29;20396;-55
2021/03/23 08:46:15;;;;;;;;;;;14.60;60.90;;;;;;4936718;29;19911;-55
2021/03/23 08:48:47;;;;;;;;;;;14.50;60.80;;;;;;4936494;29;20262;-55
2021/03/23 08:51:14;;;;;;;;;;;14.50;60.70;;;;;;4937339;29;20009;-54
2021/03/23 08:53:44;;;;;;;;;;;14.50;60.80;;;;;;4937145;29;19993;-54
2021/03/23 08:56:11;;;;;;;;;;;14.50;60.70;;;;;;4936918;29;19919;-55
2021/03/23 08:58:37;;;;;;;;;;;14.40;60.60;;;;;;4919760;29;20374;-55
2021/03/23 09:01:03;;;;;;;;;;;14.50;60.70;;;;;;4936032;29;19968;-55
2021/03/23 09:03:39;;;;;;;;;;;14.50;60.50;;;;;;4936796;29;19907;-55
2021/03/23 09:06:05;;;;;;;;;;;14.60;60.40;;;;;;4919572;29;19922;-54
2021/03/23 09:08:39;;;;;;;;;;;14.50;61.20;;;;;;4936250;28;19919;-55
2021/03/23 09:11:16;;;;;;;;;;;15.00;60.80;;;;;;4937038;29;19998;-55
2021/03/23 09:13:43;;;;;;;;;;;14.60;60.50;;;;;;4936777;29;19907;-56
2021/03/23 09:16:12;;;;;;;;;;;14.50;60.50;;;;;;4936549;29;19917;-56
2021/03/23 09:18:56;;;;;;;;;;;14.60;60.50;;;;;;4936672;29;19918;-55
2021/03/23 09:21:21;;;;;;;;;;;14.50;60.50;;;;;;4936428;29;20362;-55
2021/03/23 09:23:49;;;;;;;;;;;14.50;60.50;;;;;;4936391;29;19914;-55
2021/03/23 09:26:34;;;;;;;;;;;14.50;60.40;;;;;;4919906;29;20270;-56
2021/03/23 09:29:19;;;;;;;;;;;14.60;60.40;;;;;;4936209;29;19918;-56
2021/03/23 09:31:48;;;;;;;;;;;14.50;60.50;;;;;;4915846;29;19958;-55
2021/03/23 09:34:32;;;;;;;;;;;14.60;60.40;;;;;;4936242;29;20270;-55
2021/03/23 09:37:15;;;;;;;;;;;14.60;60.30;;;;;;4936130;29;19914;-56
2021/03/23 09:39:41;;;;;;;;;;;14.50;60.40;;;;;;4936214;29;19906;-56
2021/03/23 09:42:25;;;;;;;;;;;14.50;60.20;;;;;;4936346;29;19918;-55
2021/03/23 09:45:14;;;;;;;;;;;14.50;59.90;;;;;;4936102;29;20388;-56
2021/03/23 09:47:50;;;;;;;;;;;14.50;59.80;;;;;;4935994;29;20001;-56
2021/03/23 09:50:23;;;;;;;;;;;14.50;59.90;;;;;;4942446;29;19906;-55
2021/03/23 09:52:57;;;;;;;;;;;14.50;59.90;;;;;;4935957;29;19910;-55
2021/03/23 09:55:23;;;;;;;;;;;14.40;59.90;;;;;;4935968;29;19911;-55
2021/03/23 09:57:54;;;;;;;;;;;14.40;59.80;;;;;;4918974;29;19911;-55
2021/03/23 10:00:25;;;;;;;;;;;14.40;59.80;;;;;;4935691;29;19926;-55
2021/03/23 10:02:50;;;;;;;;;;;14.40;59.80;;;;;;4936000;29;19907;-55
2021/03/23 10:05:27;;;;;;;;;;;14.40;60.00;;;;;;4935708;29;20035;-56
2021/03/23 10:07:53;;;;;;;;;;;14.40;59.80;;;;;;4935321;28;20325;-56
2021/03/23 10:10:27;;;;;;;;;;;14.40;60.00;;;;;;4935740;29;19933;-58
2021/03/23 10:13:14;;;;;;;;;;;14.40;60.00;;;;;;4935721;29;19950;-53
2021/03/23 10:15:40;;;;;;;;;;;14.40;60.00;;;;;;4935809;29;20250;-55
2021/03/23 10:18:20;;;;;;;;;;;14.90;60.70;;;;;;4935888;29;19913;-56
2021/03/23 10:20:57;;;;;;;;;;;14.40;60.90;;;;;;4935441;29;20413;-56
2021/03/23 10:23:24;;;;;;;;;;;14.50;61.20;;;;;;4935771;29;19910;-56
2021/03/23 10:25:59;;;;;;;;;;;14.60;60.80;;;;;;4935368;29;19914;-57
2021/03/23 10:28:24;;;;;;;;;;;14.80;60.80;;;;;;4935515;29;19914;-55
2021/03/23 10:31:01;;;;;;;;;;;14.60;60.70;;;;;;4935464;29;19918;-56
2021/03/23 10:33:30;;;;;;;;;;;14.70;60.60;;;;;;4935417;29;19906;-56
2021/03/23 10:36:01;;;;;;;;;;;14.70;60.60;;;;;;4935178;29;19907;-57
2021/03/23 10:38:26;;;;;;;;;;;14.70;60.50;;;;;;4935491;29;20281;-57
2021/03/23 10:40:53;;;;;;;;;;;14.80;60.60;;;;;;4935062;29;20263;-55
2021/03/23 10:43:32;;;;;;;;;;;14.70;60.50;;;;;;4935143;29;19910;-55
2021/03/23 10:45:59;;;;;;;;;;;14.70;60.30;;;;;;4935081;29;20436;-57
2021/03/23 10:48:26;;;;;;;;;;;14.70;60.30;;;;;;4934958;29;20436;-57
2021/03/23 10:51:11;;;;;;;;;;;14.70;60.30;;;;;;4935309;29;20321;-57
2021/03/23 10:53:37;;;;;;;;;;;14.70;60.20;;;;;;4935203;29;19946;-57
2021/03/23 10:56:18;;;;;;;;;;;14.60;60.20;;;;;;4934829;29;19956;-55
2021/03/23 10:59:03;;;;;;;;;;;14.60;60.10;;;;;;4934923;29;19906;-56
2021/03/23 11:01:28;;;;;;;;;;;15.20;60.50;;;;;;4935005;29;20001;-56
2021/03/23 11:04:09;;;;;;;;;;;14.60;60.10;;;;;;4934884;29;19961;-57
2021/03/23 11:06:35;;;;;;;;;;;14.80;60.20;;;;;;4934828;29;19914;-57
2021/03/23 11:09:01;;;;;;;;;;;14.70;60.10;;;;;;4934521;29;19918;-57
2021/03/23 11:11:29;;;;;;;;;;;14.60;60.00;;;;;;4934868;29;20010;-56
2021/03/23 11:13:54;;;;;;;;;;;14.70;60.00;;;;;;4934822;29;19906;-57
2021/03/23 11:16:21;;;;;;;;;;;14.50;60.00;;;;;;4935019;29;19906;-58
2021/03/23 11:18:48;;;;;;;;;;;14.70;60.00;;;;;;4934754;29;20354;-58
2021/03/23 11:21:15;;;;;;;;;;;14.70;60.00;;;;;;4935105;29;19906;-57
2021/03/23 11:23:43;;;;;;;;;;;14.70;60.00;;;;;;4937141;29;19906;-56
2021/03/23 11:26:09;;;;;;;;;;;14.70;60.00;;;;;;4938551;29;20042;-57
2021/03/23 11:28:35;;;;;;;;;;;14.60;59.90;;;;;;4938488;29;19915;-58
2021/03/23 11:31:02;;;;;;;;;;;14.50;59.80;;;;;;4938416;29;19914;-57
2021/03/23 11:33:28;;;;;;;;;;;14.70;59.80;;;;;;4921406;29;19917;-57
2021/03/23 11:35:54;;;;;;;;;;;14.40;59.60;;;;;;4938446;29;19929;-57
2021/03/23 11:38:19;;;;;;;;;;;14.60;59.80;;;;;;4938485;29;19906;-57
2021/03/23 11:40:45;;;;;;;;;;;14.70;59.80;;;;;;4938436;29;19911;-57
2021/03/23 11:43:36;;;;;;;;;;;14.60;59.80;;;;;;4938312;29;19906;-58
2021/03/23 11:46:07;;;;;;;;;;;14.60;59.80;;;;;;4919290;29;19960;-58
2021/03/23 11:48:35;;;;;;;;;;;14.60;59.90;;;;;;4919178;29;19923;-57
2021/03/23 11:51:01;;;;;;;;;;;14.60;59.90;;;;;;4919305;29;19907;-55
2021/03/23 11:53:27;;;;;;;;;;;14.40;59.80;;;;;;4919066;29;19907;-56
2021/03/23 11:55:52;;;;;;;;;;;14.60;59.90;;;;;;4918986;29;19998;-56
2021/03/23 11:58:18;;;;;;;;;;;14.50;59.80;;;;;;4919281;29;19911;-57
2021/03/23 12:00:44;;;;;;;;;;;14.60;59.90;;;;;;4919235;29;19946;-57
2021/03/23 12:03:11;;;;;;;;;;;14.80;60.00;;;;;;4919262;29;19918;-57
2021/03/23 12:05:38;;;;;;;;;;;14.50;59.90;;;;;;4918902;29;19907;-56
2021/03/23 12:08:23;;;;;;;;;;;15.10;60.10;;;;;;4919352;29;19923;-57
2021/03/23 12:10:51;;;;;;;;;;;14.50;59.60;;;;;;4918806;29;19911;-58
2021/03/23 12:13:22;;;;;;;;;;;14.50;59.80;;;;;;4918789;29;19907;-56
2021/03/23 12:15:55;;;;;;;;;;;14.30;59.70;;;;;;4919325;29;19958;-56
2021/03/23 12:18:21;;;;;;;;;;;14.50;59.80;;;;;;4918904;29;20267;-57
2021/03/23 12:21:00;;;;;;;;;;;14.30;59.60;;;;;;4918933;29;19907;-56
2021/03/23 12:23:26;;;;;;;;;;;14.50;59.70;;;;;;4917797;29;20010;-57
2021/03/23 12:25:53;;;;;;;;;;;14.60;59.70;;;;;;4918801;29;20002;-57
2021/03/23 12:28:18;;;;;;;;;;;14.50;59.70;;;;;;4918787;29;19922;-56
2021/03/23 12:30:44;;;;;;;;;;;14.50;59.70;;;;;;4918732;29;19955;-57
2021/03/23 12:33:10;;;;;;;;;;;14.30;59.60;;;;;;4918722;29;19907;-57
2021/03/23 12:35:35;;;;;;;;;;;14.50;59.70;;;;;;4918248;29;19962;-57
2021/03/23 12:38:02;;;;;;;;;;;14.50;60.40;;;;;;4918305;29;19907;-57
2021/03/23 12:40:28;;;;;;;;;;;14.60;59.80;;;;;;4918531;29;19907;-55
2021/03/23 12:42:55;;;;;;;;;;;14.60;59.80;;;;;;4918219;29;19907;-57
2021/03/23 12:45:26;;;;;;;;;;;14.50;59.70;;;;;;4918447;29;19914;-56
2021/03/23 12:47:51;;;;;;;;;;;14.40;59.60;;;;;;4918021;29;19919;-57
2021/03/23 12:50:17;;;;;;;;;;;14.50;59.60;;;;;;4918619;29;19907;-57
2021/03/23 12:52:42;;;;;;;;;;;14.50;59.60;;;;;;4918047;29;20330;-56
2021/03/23 12:55:14;;;;;;;;;;;14.50;59.60;;;;;;4900926;29;19917;-57
2021/03/23 12:57:41;;;;;;;;;;;14.50;59.60;;;;;;4918016;29;19955;-56
2021/03/23 13:00:11;;;;;;;;;;;14.10;59.40;;;;;;4917888;29;20471;-57
2021/03/23 13:02:37;;;;;;;;;;;14.50;59.60;;;;;;4917174;29;20180;-55
2021/03/23 13:05:02;;;;;;;;;;;14.50;59.70;;;;;;4917968;29;19973;-54
2021/03/23 13:07:31;;;;;;;;;;;14.50;59.70;;;;;;4918383;29;19911;-56
2021/03/23 13:10:06;;;;;;;;;;;14.50;59.90;;;;;;4917646;28;20002;-56
2021/03/23 13:12:31;;;;;;;;;;;14.70;59.70;;;;;;4936665;29;19921;-56
2021/03/23 13:14:57;;;;;;;;;;;14.80;59.50;;;;;;4936865;29;20008;-56
2021/03/23 13:17:24;;;;;;;;;;;15.00;59.00;;;;;;4936920;29;20002;-55
2021/03/23 13:19:50;;;;;;;;;;;15.30;58.50;;;;;;4937085;29;19906;-56
2021/03/23 13:22:17;;;;;;;;;;;15.30;57.90;;;;;;4936430;29;19962;-56
2021/03/23 13:24:44;;;;;;;;;;;16.40;58.00;;;;;;4919293;29;19914;-56
2021/03/23 13:27:16;;;;;;;;;;;16.00;57.30;;;;;;4936603;29;19906;-56
2021/03/23 13:29:42;;;;;;;;;;;16.00;56.80;;;;;;4936323;29;19915;-56
2021/03/23 13:32:07;;;;;;;;;;;16.00;56.70;;;;;;4936241;29;19914;-56
2021/03/23 13:34:33;;;;;;;;;;;16.30;56.60;;;;;;4936266;29;19911;-56
2021/03/23 13:37:01;;;;;;;;;;;16.30;56.50;;;;;;4936155;29;20313;-56
2021/03/23 13:39:31;;;;;;;;;;;16.20;56.40;;;;;;4936487;29;19906;-56
2021/03/23 13:42:15;;;;;;;;;;;16.20;56.60;;;;;;4936120;29;20362;-56
2021/03/23 13:44:47;;;;;;;;;;;16.10;56.70;;;;;;4936378;29;19914;-55
2021/03/23 13:47:12;;;;;;;;;;;16.10;56.70;;;;;;4935407;29;19914;-56
2021/03/23 13:49:38;;;;;;;;;;;16.10;56.60;;;;;;4935997;29;19934;-56
2021/03/23 13:52:04;;;;;;;;;;;16.30;56.50;;;;;;4936010;29;19911;-56
2021/03/23 13:54:30;;;;;;;;;;;16.40;56.40;;;;;;4918750;29;19910;-57
2021/03/23 13:56:55;;;;;;;;;;;16.40;56.20;;;;;;4935789;29;20374;-56
2021/03/23 13:59:22;;;;;;;;;;;16.50;56.10;;;;;;4936174;29;20175;-56
2021/03/23 14:01:51;;;;;;;;;;;16.60;55.90;;;;;;4935871;29;19954;-57
2021/03/23 14:04:17;;;;;;;;;;;16.60;55.90;;;;;;4935701;29;20392;-56
2021/03/23 14:06:43;;;;;;;;;;;16.70;55.90;;;;;;4935872;29;19907;-54
2021/03/23 14:09:26;;;;;;;;;;;16.60;55.80;;;;;;4935217;29;19977;-55
2021/03/23 14:11:51;;;;;;;;;;;16.70;55.60;;;;;;4942145;29;19907;-57
2021/03/23 14:14:17;;;;;;;;;;;16.70;55.60;;;;;;4935940;29;19907;-57
2021/03/23 14:16:43;;;;;;;;;;;16.50;56.20;;;;;;4935622;29;19922;-60
2021/03/23 14:19:08;;;;;;;;;;;16.70;55.60;;;;;;4935916;29;19915;-56
2021/03/23 14:21:35;;;;;;;;;;;16.70;55.50;;;;;;4918776;29;19913;-56
2021/03/23 14:24:01;;;;;;;;;;;16.40;55.40;;;;;;4918423;29;19907;-57
2021/03/23 14:26:26;;;;;;;;;;;16.50;55.60;;;;;;4935389;29;20358;-56